SAMM/LGS METAR and TAF weather

Enter ICAO airport designator
Station Type Date Time Source
SAMM METAR 2022/09/16 17:30 UTC NOAA

SAMM 161730Z 36020G64KT 2000 BLSA NSC 23/M07 Q1009


Station Type Date Time Source
SAMM Decoded METAR 2022/09/16 17:30 UTC NOAA

Malargue Aerodrome, Argentina (SAMM) 35-30S 069-35W 1425M
Sep 16, 2022 - 01:30 PM EDT / 2022.09.16 1730 UTC
Wind: from the N (360 degrees) at 23 MPH (20 KT) gusting to 74 MPH (64 KT):1
Visibility: 1 mile(s):0
Weather: blowing sand
Temperature: 73 F (23 C)
Dew Point: 19 F (-7 C)
Relative Humidity: 12%
Pressure (altimeter): 29.80 in. Hg (1009 hPa)
ob: SAMM 161730Z 36020G64KT 2000 BLSA NSC 23/M07 Q1009
cycle: 17

Station Type Date Time Source
SAMM TAF UTC NOAA

Error!

Example: see airport list